Time;durP1;ratioP1;P1;durP2;ratioP2;P2;SDS_P1;SDS_P2;PMS_P1;PMS_P2;Temp;Humidity;BMP_temperature;BMP_pressure;BME280_temperature;BME280_humidity;BME280_pressure;Samples;Min_cycle;Max_cycle;Signal;HPM_P1;HPM_P2
2022/01/08 00:01:31;;;;;;;9.57;8.70;;;3.80;99.90;;;;;;5053509;28;20178;-66
2022/01/08 00:03:56;;;;;;;8.97;8.37;;;3.80;99.90;;;;;;5053033;28;20178;-66
2022/01/08 00:06:22;;;;;;;9.47;8.83;;;3.80;99.90;;;;;;5053522;28;20206;-67
2022/01/08 00:08:49;;;;;;;9.40;8.80;;;3.90;99.90;;;;;;5053013;28;20202;-66
2022/01/08 00:11:18;;;;;;;8.90;8.37;;;3.90;99.90;;;;;;5053012;28;20162;-66
2022/01/08 00:13:44;;;;;;;9.10;8.40;;;3.90;99.90;;;;;;5052364;28;20175;-66
2022/01/08 00:16:10;;;;;;;102.77;38.73;;;3.90;99.90;;;;;;5052970;28;20179;-66
2022/01/08 00:18:36;;;;;;;206.63;63.37;;;3.90;99.90;;;;;;5052626;28;20199;-66
2022/01/08 00:21:01;;;;;;;144.70;49.53;;;3.90;99.90;;;;;;5052861;28;20684;-66
2022/01/08 00:23:27;;;;;;;61.17;26.10;;;3.90;99.90;;;;;;5052106;28;20179;-66
2022/01/08 00:25:53;;;;;;;16.40;13.17;;;4.00;99.90;;;;;;5052778;28;20174;-66
2022/01/08 00:28:18;;;;;;;11.90;10.87;;;4.10;99.90;;;;;;5052295;28;20209;-66
2022/01/08 00:30:45;;;;;;;10.67;9.97;;;4.00;99.90;;;;;;5052421;28;20181;-66
2022/01/08 00:33:10;;;;;;;9.73;9.03;;;4.00;99.90;;;;;;5051796;28;20209;-66
2022/01/08 00:35:36;;;;;;;10.67;9.67;;;4.00;99.90;;;;;;5052471;28;20207;-66
2022/01/08 00:38:02;;;;;;;12.40;9.53;;;4.00;99.90;;;;;;5052603;28;20206;-66
2022/01/08 00:40:28;;;;;;;11.17;10.27;;;4.00;99.90;;;;;;5052482;28;20214;-65
2022/01/08 00:42:54;;;;;;;10.37;9.67;;;4.00;99.90;;;;;;5051777;28;20202;-65
2022/01/08 00:45:20;;;;;;;10.30;9.60;;;4.00;99.90;;;;;;5052442;28;20178;-66
2022/01/08 00:47:46;;;;;;;9.70;9.10;;;4.00;99.90;;;;;;5052059;28;20194;-67
2022/01/08 00:50:14;;;;;;;10.13;9.33;;;4.00;99.90;;;;;;5051876;28;20217;-65
2022/01/08 00:52:41;;;;;;;10.47;9.73;;;4.00;99.90;;;;;;5051905;28;20584;-66
2022/01/08 00:55:08;;;;;;;10.37;9.57;;;4.00;99.90;;;;;;5051788;28;20232;-66
2022/01/08 00:57:34;;;;;;;9.10;8.60;;;4.10;99.90;;;;;;5050618;28;20225;-67
2022/01/08 00:59:59;;;;;;;11.50;8.73;;;4.00;99.90;;;;;;5051645;28;20261;-65
2022/01/08 01:02:25;;;;;;;9.40;8.60;;;4.00;99.90;;;;;;5051223;28;20190;-68
2022/01/08 01:04:51;;;;;;;9.47;8.70;;;4.00;99.90;;;;;;5051775;28;20206;-66
2022/01/08 01:07:16;;;;;;;9.77;8.90;;;4.00;99.90;;;;;;5051476;28;20278;-65
2022/01/08 01:09:42;;;;;;;8.70;8.03;;;4.00;99.90;;;;;;5051088;28;20183;-65
2022/01/08 01:12:08;;;;;;;8.90;8.30;;;4.00;99.90;;;;;;5051576;28;20179;-66
2022/01/08 01:14:34;;;;;;;10.17;9.23;;;4.00;99.90;;;;;;5051537;28;20179;-66
2022/01/08 01:16:59;;;;;;;9.97;9.13;;;4.00;99.90;;;;;;5049759;28;20545;-66
2022/01/08 01:19:25;;;;;;;9.57;8.97;;;4.00;99.90;;;;;;5051457;28;20191;-66
2022/01/08 01:21:53;;;;;;;9.00;8.37;;;4.00;99.90;;;;;;5051435;28;20174;-66
2022/01/08 01:24:24;;;;;;;9.80;8.87;;;3.90;99.90;;;;;;5051312;28;20171;-66
2022/01/08 01:29:38;;;;;;;8.30;7.77;;;3.80;99.90;;;;;;5051471;28;20183;-66
2022/01/08 01:43:34;;;;;;;10.77;9.90;;;3.30;99.90;;;;;;5051201;28;20647;-67
2022/01/08 01:48:30;;;;;;;10.00;9.17;;;3.10;99.90;;;;;;5062992;28;20569;-67
2022/01/08 01:50:55;;;;;;;9.57;8.77;;;3.00;99.90;;;;;;5070076;28;20269;-66
2022/01/08 01:53:21;;;;;;;8.70;8.00;;;2.90;99.90;;;;;;5065413;28;20174;-67
2022/01/08 01:55:50;;;;;;;8.67;8.07;;;2.80;99.90;;;;;;5051453;28;20190;-67
2022/01/08 01:58:17;;;;;;;8.97;8.47;;;2.70;99.90;;;;;;5049750;28;20248;-65
2022/01/08 02:00:44;;;;;;;9.70;9.00;;;2.70;99.90;;;;;;5051237;28;20289;-66
2022/01/08 02:03:10;;;;;;;10.23;9.53;;;2.70;99.90;;;;;;5050701;28;20205;-66
2022/01/08 02:05:35;;;;;;;9.97;9.17;;;2.60;99.90;;;;;;5051231;28;20549;-67
2022/01/08 02:08:01;;;;;;;10.23;9.23;;;2.60;99.90;;;;;;5050908;28;20202;-66
2022/01/08 02:10:27;;;;;;;9.83;9.03;;;2.60;99.90;;;;;;5051292;28;20253;-67
2022/01/08 02:12:52;;;;;;;11.17;10.37;;;2.50;99.90;;;;;;5050814;28;20175;-67
2022/01/08 02:15:18;;;;;;;9.83;9.13;;;2.40;99.90;;;;;;5050678;28;20241;-66
2022/01/08 02:17:44;;;;;;;9.63;8.93;;;2.40;99.90;;;;;;5051082;28;20664;-67
2022/01/08 02:20:10;;;;;;;8.90;8.40;;;2.20;99.90;;;;;;5050166;28;20571;-66
2022/01/08 02:22:36;;;;;;;9.10;8.23;;;2.20;99.90;;;;;;5053250;28;20232;-66
2022/01/08 02:25:03;;;;;;;8.80;8.10;;;2.20;99.90;;;;;;5054505;28;20178;-66
2022/01/08 02:27:28;;;;;;;8.17;7.77;;;2.10;99.90;;;;;;5054632;28;20203;-66
2022/01/08 02:29:54;;;;;;;8.43;7.93;;;2.10;99.90;;;;;;5054418;28;20201;-66
2022/01/08 02:32:26;;;;;;;9.37;8.57;;;2.00;99.90;;;;;;5053049;28;20182;-66
2022/01/08 02:34:52;;;;;;;9.07;8.27;;;2.00;99.90;;;;;;5054524;28;20175;-66
2022/01/08 02:37:24;;;;;;;12.50;8.60;;;2.00;99.90;;;;;;5054790;28;20202;-66
2022/01/08 02:39:50;;;;;;;9.37;8.67;;;1.90;99.90;;;;;;5054436;28;20672;-66
2022/01/08 02:42:19;;;;;;;9.40;8.63;;;1.90;99.90;;;;;;5054256;28;20228;-66
2022/01/08 02:44:45;;;;;;;9.27;8.50;;;1.80;99.90;;;;;;5054211;28;20232;-66
2022/01/08 02:47:18;;;;;;;9.73;8.97;;;1.80;99.90;;;;;;5054364;28;20198;-66
2022/01/08 02:49:44;;;;;;;9.10;8.50;;;1.80;99.90;;;;;;5054293;28;20621;-66
2022/01/08 02:52:10;;;;;;;9.83;9.23;;;1.70;99.90;;;;;;5054569;28;20213;-67
2022/01/08 02:54:36;;;;;;;11.67;9.17;;;1.70;99.90;;;;;;5054119;28;20194;-66
2022/01/08 02:57:02;;;;;;;11.20;10.43;;;1.70;99.90;;;;;;5052920;28;20186;-66
2022/01/08 02:59:29;;;;;;;9.67;8.87;;;1.70;99.90;;;;;;5053805;28;20293;-66
2022/01/08 03:01:54;;;;;;;10.03;8.83;;;1.70;99.90;;;;;;5054241;28;20221;-66
2022/01/08 03:04:20;;;;;;;9.50;8.70;;;1.70;99.90;;;;;;5054162;28;20183;-66
2022/01/08 03:06:46;;;;;;;10.50;9.40;;;1.60;99.90;;;;;;5054353;28;20262;-66
2022/01/08 03:09:12;;;;;;;11.27;10.37;;;1.60;99.90;;;;;;5053522;28;20289;-66
2022/01/08 03:11:41;;;;;;;13.57;10.80;;;1.60;99.90;;;;;;5054101;28;20187;-66
2022/01/08 03:14:07;;;;;;;9.13;8.60;;;1.50;99.90;;;;;;5053482;28;20201;-66
2022/01/08 03:16:33;;;;;;;11.07;9.80;;;1.50;99.90;;;;;;5054022;28;20550;-65
2022/01/08 03:18:59;;;;;;;9.87;9.17;;;1.50;99.90;;;;;;5053875;28;20687;-65
2022/01/08 03:21:24;;;;;;;10.77;9.87;;;1.50;99.90;;;;;;5051914;28;20179;-65
2022/01/08 03:23:59;;;;;;;10.90;10.10;;;1.40;99.90;;;;;;5053648;28;20167;-65
2022/01/08 03:26:26;;;;;;;11.27;9.03;;;1.40;99.90;;;;;;5052553;28;20186;-65
2022/01/08 03:28:52;;;;;;;9.40;8.70;;;1.40;99.90;;;;;;5053982;28;20194;-65
2022/01/08 03:31:19;;;;;;;9.33;8.70;;;1.50;99.90;;;;;;5053366;28;20214;-66
2022/01/08 03:33:45;;;;;;;9.63;8.83;;;1.50;99.90;;;;;;5085484;28;20190;-66
2022/01/08 03:36:12;;;;;;;10.37;9.17;;;1.50;99.90;;;;;;5053297;28;20261;-66
2022/01/08 03:38:38;;;;;;;8.27;7.83;;;1.50;99.90;;;;;;5053168;28;20303;-66
2022/01/08 03:41:04;;;;;;;11.13;9.97;;;1.50;99.90;;;;;;5053207;28;20206;-66
2022/01/08 03:43:30;;;;;;;11.93;11.03;;;1.60;99.90;;;;;;5052865;28;20183;-67
2022/01/08 03:45:56;;;;;;;11.90;10.83;;;1.60;99.90;;;;;;5053755;28;20174;-67
2022/01/08 03:51:06;;;;;;;12.33;11.20;;;1.60;99.90;;;;;;5053626;28;20256;-67
2022/01/08 03:53:31;;;;;;;12.57;11.10;;;1.60;99.90;;;;;;5051910;28;20194;-65
2022/01/08 03:55:57;;;;;;;12.63;10.43;;;1.60;99.90;;;;;;5053200;28;20189;-66
2022/01/08 03:58:23;;;;;;;11.87;10.87;;;1.60;99.90;;;;;;5052789;28;20773;-65
2022/01/08 04:00:49;;;;;;;12.00;10.90;;;1.60;99.90;;;;;;5053153;28;20244;-64
2022/01/08 04:03:18;;;;;;;12.97;11.33;;;1.50;99.90;;;;;;5052312;28;20182;-64
2022/01/08 04:05:48;;;;;;;11.67;10.67;;;1.50;99.90;;;;;;5053309;28;20166;-65
2022/01/08 04:08:15;;;;;;;15.07;13.53;;;1.50;99.90;;;;;;5051253;28;20241;-66
2022/01/08 04:10:41;;;;;;;12.83;11.53;;;1.50;99.90;;;;;;5052757;28;20212;-66
2022/01/08 04:13:12;;;;;;;14.97;13.20;;;1.50;99.90;;;;;;5052548;28;20207;-66
2022/01/08 04:15:41;;;;;;;16.27;12.73;;;1.50;99.90;;;;;;5031866;28;20723;-66
2022/01/08 04:18:07;;;;;;;13.93;12.23;;;1.40;99.90;;;;;;5033224;28;20206;-65
2022/01/08 04:20:38;;;;;;;13.23;11.87;;;1.50;99.90;;;;;;5051622;28;20323;-66
2022/01/08 04:23:04;;;;;;;18.60;13.27;;;1.50;99.90;;;;;;5052326;28;20693;-66
2022/01/08 04:25:31;;;;;;;13.37;12.17;;;1.50;99.90;;;;;;5052616;28;20190;-66
2022/01/08 04:27:56;;;;;;;14.97;11.70;;;1.50;99.90;;;;;;5052297;28;20329;-66
2022/01/08 04:30:22;;;;;;;13.53;12.33;;;1.50;99.90;;;;;;5052501;28;20649;-66
2022/01/08 04:32:48;;;;;;;16.93;13.23;;;1.50;99.90;;;;;;5052059;28;20190;-66
2022/01/08 04:35:14;;;;;;;15.90;13.73;;;1.50;99.90;;;;;;5052557;28;20214;-66
2022/01/08 04:37:40;;;;;;;17.57;14.80;;;1.50;99.90;;;;;;5052135;28;20332;-66
2022/01/08 04:40:06;;;;;;;16.97;14.33;;;1.50;99.90;;;;;;5050927;28;20697;-66
2022/01/08 04:42:32;;;;;;;21.07;16.20;;;1.50;99.90;;;;;;5051690;28;20183;-66
2022/01/08 04:44:57;;;;;;;20.77;14.53;;;1.60;99.90;;;;;;5051516;28;20182;-65
2022/01/08 04:47:23;;;;;;;25.87;13.13;;;1.60;99.90;;;;;;5051793;28;20207;-66
2022/01/08 04:49:48;;;;;;;18.60;13.10;;;1.60;99.90;;;;;;5052202;28;20633;-66
2022/01/08 04:52:14;;;;;;;17.43;14.63;;;1.50;99.90;;;;;;5050372;28;20206;-65
2022/01/08 04:54:40;;;;;;;29.07;16.27;;;1.50;99.90;;;;;;5052054;28;20257;-66
2022/01/08 04:57:05;;;;;;;14.83;13.27;;;1.60;99.90;;;;;;5051648;28;20233;-66
2022/01/08 04:59:31;;;;;;;15.30;12.40;;;1.50;99.90;;;;;;5051852;28;20206;-66
2022/01/08 05:01:56;;;;;;;18.37;15.53;;;1.50;99.90;;;;;;5051585;28;20207;-66
2022/01/08 05:04:22;;;;;;;17.10;14.17;;;1.50;99.90;;;;;;5051907;28;20254;-67
2022/01/08 05:06:48;;;;;;;23.43;15.20;;;1.50;99.90;;;;;;5052189;28;20209;-66
2022/01/08 05:09:13;;;;;;;16.70;13.73;;;1.50;99.90;;;;;;5051728;28;20552;-66
2022/01/08 05:11:39;;;;;;;18.60;15.17;;;1.50;99.90;;;;;;5051835;28;20547;-67
2022/01/08 05:14:05;;;;;;;17.53;15.30;;;1.50;99.90;;;;;;5051605;28;20186;-67
2022/01/08 05:16:31;;;;;;;19.43;13.87;;;1.50;99.90;;;;;;5051456;28;20182;-66
2022/01/08 05:18:59;;;;;;;19.80;14.93;;;1.50;99.90;;;;;;5051514;28;20194;-66
2022/01/08 05:21:27;;;;;;;19.57;16.57;;;1.50;99.90;;;;;;5050063;28;20197;-66
2022/01/08 05:23:54;;;;;;;19.37;15.37;;;1.50;99.90;;;;;;5051437;28;20175;-66
2022/01/08 05:26:21;;;;;;;16.83;13.33;;;1.50;99.90;;;;;;5051623;28;20333;-66
2022/01/08 05:28:47;;;;;;;17.13;15.33;;;1.50;99.90;;;;;;5051602;28;20198;-66
2022/01/08 05:31:15;;;;;;;21.63;16.33;;;1.50;99.90;;;;;;5051422;28;20178;-66
2022/01/08 05:33:41;;;;;;;20.83;15.70;;;1.50;99.90;;;;;;5051053;28;20182;-66
2022/01/08 05:36:07;;;;;;;21.60;14.07;;;1.50;99.90;;;;;;5051595;28;20183;-66
2022/01/08 05:38:33;;;;;;;17.67;14.80;;;1.50;99.90;;;;;;5050954;28;20219;-66
2022/01/08 05:41:00;;;;;;;16.67;14.47;;;1.50;99.90;;;;;;5051288;28;20198;-66
2022/01/08 05:43:26;;;;;;;20.93;16.20;;;1.50;99.90;;;;;;5051009;28;20170;-66
2022/01/08 05:45:51;;;;;;;27.07;16.40;;;1.40;99.90;;;;;;5050092;28;20178;-66
2022/01/08 05:48:17;;;;;;;14.97;13.60;;;1.40;99.90;;;;;;5051019;28;20285;-66
2022/01/08 05:50:43;;;;;;;17.47;15.60;;;1.40;99.90;;;;;;5051371;28;20697;-66
2022/01/08 05:53:08;;;;;;;20.37;16.53;;;1.40;99.90;;;;;;5050595;28;20529;-66
2022/01/08 05:55:34;;;;;;;21.07;16.40;;;1.40;99.90;;;;;;5067034;28;20236;-66
2022/01/08 05:58:00;;;;;;;25.20;16.70;;;1.40;99.90;;;;;;5075412;28;20194;-66
2022/01/08 06:00:25;;;;;;;19.70;14.03;;;1.40;99.90;;;;;;5066542;28;20206;-66
2022/01/08 06:02:51;;;;;;;20.20;15.37;;;1.40;99.90;;;;;;5053830;28;20178;-66
2022/01/08 06:05:16;;;;;;;25.80;17.33;;;1.40;99.90;;;;;;5054900;28;20269;-66
2022/01/08 06:07:42;;;;;;;22.33;17.10;;;1.40;99.90;;;;;;5055173;28;20199;-65
2022/01/08 06:10:08;;;;;;;21.13;16.70;;;1.40;99.90;;;;;;5054914;28;20174;-65
2022/01/08 06:12:34;;;;;;;24.47;16.07;;;1.40;99.90;;;;;;5053620;28;20206;-65
2022/01/08 06:14:59;;;;;;;20.67;15.40;;;1.40;99.90;;;;;;5055264;28;20187;-66
2022/01/08 06:17:25;;;;;;;19.07;15.93;;;1.30;99.90;;;;;;5055240;28;20572;-66
2022/01/08 06:19:51;;;;;;;19.20;15.27;;;1.30;99.90;;;;;;5054794;28;20272;-66
2022/01/08 06:22:17;;;;;;;22.93;17.07;;;1.30;99.90;;;;;;5054781;28;20197;-66
2022/01/08 06:24:42;;;;;;;20.67;15.77;;;1.30;99.90;;;;;;5054891;28;20228;-66
2022/01/08 06:27:08;;;;;;;25.33;15.67;;;1.30;99.90;;;;;;5053193;28;20214;-66
2022/01/08 06:29:34;;;;;;;27.10;16.20;;;1.30;99.90;;;;;;5054780;28;20532;-66
2022/01/08 06:31:59;;;;;;;17.17;15.17;;;1.30;99.90;;;;;;5054429;28;20622;-66
2022/01/08 06:34:25;;;;;;;23.03;15.53;;;1.30;99.90;;;;;;5054774;28;20175;-66
2022/01/08 06:36:51;;;;;;;18.60;14.47;;;1.30;99.90;;;;;;5054786;28;20182;-66
2022/01/08 06:39:17;;;;;;;21.83;15.33;;;1.30;99.90;;;;;;5054254;28;20211;-66
2022/01/08 06:41:43;;;;;;;16.27;13.47;;;1.40;99.90;;;;;;5054364;28;20187;-66
2022/01/08 06:44:09;;;;;;;17.80;14.83;;;1.40;99.90;;;;;;5054338;28;20186;-66
2022/01/08 06:46:35;;;;;;;21.47;15.17;;;1.40;99.90;;;;;;5054235;28;20186;-66
2022/01/08 06:49:00;;;;;;;19.23;15.00;;;1.40;99.90;;;;;;5054457;28;20198;-66
2022/01/08 06:51:26;;;;;;;21.17;16.13;;;1.40;99.90;;;;;;5054042;28;20266;-66
2022/01/08 06:53:52;;;;;;;20.30;16.27;;;1.40;99.90;;;;;;5054213;28;20171;-66
2022/01/08 06:56:18;;;;;;;21.93;16.17;;;1.50;99.90;;;;;;5053996;28;20632;-66
2022/01/08 06:58:45;;;;;;;22.60;15.57;;;1.50;99.90;;;;;;5054428;28;20194;-66
2022/01/08 07:01:11;;;;;;;23.60;17.13;;;1.50;99.90;;;;;;5053744;28;20213;-66
2022/01/08 07:03:37;;;;;;;21.47;16.90;;;1.50;99.90;;;;;;5058486;28;20272;-66
2022/01/08 07:06:03;;;;;;;25.47;17.20;;;1.50;99.90;;;;;;5064891;28;20186;-66
2022/01/08 07:08:29;;;;;;;19.90;16.43;;;1.50;99.90;;;;;;5051718;28;20289;-66
2022/01/08 07:10:54;;;;;;;23.50;17.03;;;1.50;99.90;;;;;;5053823;28;20240;-67
2022/01/08 07:13:20;;;;;;;23.83;16.80;;;1.50;99.90;;;;;;5053477;28;20179;-67
2022/01/08 07:15:46;;;;;;;25.93;16.00;;;1.50;99.90;;;;;;5053794;28;20265;-67
2022/01/08 07:18:11;;;;;;;19.33;17.20;;;1.50;99.90;;;;;;5052352;28;20195;-67
2022/01/08 07:20:37;;;;;;;24.13;16.93;;;1.50;99.90;;;;;;5052193;28;20656;-68
2022/01/08 07:23:03;;;;;;;27.17;17.67;;;1.40;99.90;;;;;;5053402;28;20167;-68
2022/01/08 07:25:28;;;;;;;29.20;17.10;;;1.50;99.90;;;;;;5051948;28;20170;-67
2022/01/08 07:27:54;;;;;;;22.40;17.93;;;1.50;99.90;;;;;;5053645;28;20285;-67
2022/01/08 07:30:20;;;;;;;19.20;15.90;;;1.50;99.90;;;;;;5053201;28;20632;-66
2022/01/08 07:32:48;;;;;;;24.63;16.30;;;1.60;99.90;;;;;;5053349;28;20633;-66
2022/01/08 07:35:15;;;;;;;32.63;17.30;;;1.60;99.90;;;;;;5052030;28;20174;-67
2022/01/08 07:37:42;;;;;;;25.67;17.63;;;1.70;99.90;;;;;;5051921;28;20199;-66
2022/01/08 07:40:09;;;;;;;23.03;17.43;;;1.70;99.90;;;;;;5053244;28;20209;-66
2022/01/08 07:42:35;;;;;;;20.80;16.50;;;1.70;99.90;;;;;;5052832;28;20179;-66
2022/01/08 07:45:01;;;;;;;20.47;15.53;;;1.80;99.90;;;;;;5052445;28;20739;-66
2022/01/08 07:47:26;;;;;;;20.90;16.00;;;1.70;99.90;;;;;;5051464;28;20293;-66
2022/01/08 07:49:52;;;;;;;32.37;17.90;;;1.70;99.90;;;;;;5053276;28;20528;-67
2022/01/08 07:52:18;;;;;;;30.77;17.27;;;1.80;99.90;;;;;;5051218;28;20556;-66
2022/01/08 07:54:43;;;;;;;22.33;16.17;;;1.80;99.90;;;;;;5051683;28;20208;-68
2022/01/08 07:57:09;;;;;;;28.97;16.77;;;1.90;99.90;;;;;;5051440;28;20202;-66
2022/01/08 07:59:35;;;;;;;21.97;17.03;;;1.90;99.90;;;;;;5052669;28;20202;-66
2022/01/08 08:02:00;;;;;;;25.07;16.80;;;1.90;99.90;;;;;;5052675;28;20198;-66
2022/01/08 08:04:26;;;;;;;25.43;16.50;;;2.00;99.90;;;;;;5052918;28;20171;-66
2022/01/08 08:06:52;;;;;;;22.47;17.53;;;2.10;99.90;;;;;;5051519;28;20220;-68
2022/01/08 08:09:18;;;;;;;34.87;17.70;;;2.00;99.90;;;;;;5052533;28;20542;-66
2022/01/08 08:11:44;;;;;;;18.83;16.83;;;2.00;99.90;;;;;;5051368;28;20183;-65
2022/01/08 08:14:10;;;;;;;19.03;17.00;;;2.10;99.90;;;;;;5052869;28;20188;-66
2022/01/08 08:16:35;;;;;;;22.00;18.07;;;2.20;99.90;;;;;;5052240;28;20269;-66
2022/01/08 08:19:01;;;;;;;24.87;17.53;;;2.30;99.90;;;;;;5051564;28;20281;-65
2022/01/08 08:21:27;;;;;;;27.67;17.13;;;2.40;99.90;;;;;;5051060;28;20180;-66
2022/01/08 08:23:53;;;;;;;24.07;17.70;;;2.40;99.90;;;;;;5051077;28;20186;-66
2022/01/08 08:26:18;;;;;;;29.50;17.47;;;2.50;99.90;;;;;;5052163;28;20177;-65
2022/01/08 08:28:44;;;;;;;26.00;17.93;;;2.60;99.90;;;;;;5051160;28;20567;-66
2022/01/08 08:31:11;;;;;;;35.07;18.37;;;2.70;99.90;;;;;;5051328;28;20183;-67
2022/01/08 08:33:37;;;;;;;27.80;18.70;;;2.70;99.90;;;;;;5051789;28;20259;-67
2022/01/08 08:36:03;;;;;;;32.47;18.43;;;2.80;99.90;;;;;;5052470;28;20175;-67
2022/01/08 08:38:29;;;;;;;26.97;18.93;;;2.90;99.90;;;;;;5051597;28;20213;-67
2022/01/08 08:40:55;;;;;;;24.23;17.10;;;2.90;99.90;;;;;;5052363;28;20585;-67
2022/01/08 08:43:21;;;;;;;27.77;18.13;;;3.00;99.90;;;;;;5051480;28;20183;-67
2022/01/08 08:45:46;;;;;;;26.37;16.43;;;3.00;99.90;;;;;;5052284;28;20273;-67
2022/01/08 08:48:12;;;;;;;29.10;17.73;;;3.10;99.90;;;;;;5051772;28;20294;-67
2022/01/08 08:50:38;;;;;;;29.33;17.37;;;3.10;99.90;;;;;;5051875;28;20174;-67
2022/01/08 08:53:04;;;;;;;22.33;17.70;;;3.20;99.90;;;;;;5051736;28;20194;-66
2022/01/08 08:55:30;;;;;;;21.90;16.43;;;3.10;99.90;;;;;;5050075;28;20183;-66
2022/01/08 08:57:55;;;;;;;27.67;17.67;;;3.20;99.90;;;;;;5050421;28;20289;-66
2022/01/08 09:00:21;;;;;;;26.70;17.23;;;3.20;99.90;;;;;;5050240;28;20213;-66
2022/01/08 09:02:47;;;;;;;22.93;16.60;;;3.20;99.90;;;;;;5050500;28;20178;-66
2022/01/08 09:05:12;;;;;;;23.03;17.13;;;3.20;99.90;;;;;;5051487;28;20179;-67
2022/01/08 09:07:39;;;;;;;27.70;16.67;;;3.30;99.90;;;;;;5051668;28;20251;-66
2022/01/08 09:10:06;;;;;;;19.87;16.77;;;3.30;99.90;;;;;;5051567;28;20175;-67
2022/01/08 09:12:32;;;;;;;27.13;16.10;;;3.40;99.90;;;;;;5051552;28;20178;-68
2022/01/08 09:14:58;;;;;;;21.83;16.13;;;3.40;99.90;;;;;;5051682;28;20224;-66
2022/01/08 09:17:25;;;;;;;20.70;16.53;;;3.50;99.90;;;;;;5051306;28;20619;-66
2022/01/08 09:19:51;;;;;;;21.90;15.17;;;3.50;99.90;;;;;;5049121;28;20226;-66
2022/01/08 09:22:17;;;;;;;26.43;16.27;;;3.60;99.90;;;;;;5050761;28;20185;-66
2022/01/08 09:24:44;;;;;;;23.80;14.43;;;3.80;99.90;;;;;;5052534;28;20262;-67
2022/01/08 09:27:10;;;;;;;25.07;15.50;;;4.00;99.90;;;;;;5052394;28;20260;-66
2022/01/08 09:29:36;;;;;;;18.40;14.77;;;4.20;99.90;;;;;;5051907;28;20253;-66
2022/01/08 09:32:05;;;;;;;18.80;14.43;;;4.40;99.90;;;;;;5050626;28;20178;-66
2022/01/08 09:34:31;;;;;;;17.70;14.30;;;4.70;99.90;;;;;;5051503;28;20186;-66
2022/01/08 09:36:58;;;;;;;20.60;14.93;;;4.90;99.90;;;;;;5051032;28;20562;-66
2022/01/08 09:39:24;;;;;;;24.07;17.17;;;5.00;99.90;;;;;;5051652;28;20627;-66
2022/01/08 09:41:53;;;;;;;28.07;16.33;;;5.10;99.90;;;;;;5051088;28;20191;-68
2022/01/08 09:44:18;;;;;;;19.80;14.27;;;5.20;99.90;;;;;;5049753;28;20553;-66
2022/01/08 09:46:44;;;;;;;26.67;16.97;;;5.10;99.90;;;;;;5050040;28;20182;-67
2022/01/08 09:49:10;;;;;;;23.03;15.07;;;5.00;99.90;;;;;;5052053;28;20668;-66
2022/01/08 09:51:35;;;;;;;27.53;15.37;;;4.90;99.90;;;;;;5050662;28;20179;-67
2022/01/08 09:54:02;;;;;;;25.00;15.17;;;4.80;99.90;;;;;;5051527;28;20178;-66
2022/01/08 09:56:29;;;;;;;29.20;17.23;;;4.70;99.90;;;;;;5050585;28;20182;-66
2022/01/08 09:58:56;;;;;;;30.53;18.17;;;4.70;99.90;;;;;;5064295;28;20194;-66
2022/01/08 10:01:33;;;;;;;20.90;13.83;;;4.60;99.90;;;;;;5066624;28;20198;-66
2022/01/08 10:04:00;;;;;;;17.47;14.47;;;4.60;99.90;;;;;;5051732;28;20174;-68
2022/01/08 10:06:31;;;;;;;21.57;14.57;;;4.60;99.90;;;;;;5051505;28;20191;-67
2022/01/08 10:08:57;;;;;;;24.37;15.20;;;4.50;99.90;;;;;;5049858;28;20248;-66
2022/01/08 10:11:24;;;;;;;33.00;18.87;;;4.50;99.90;;;;;;5049204;28;20559;-67
2022/01/08 10:14:00;;;;;;;32.67;18.10;;;4.50;99.90;;;;;;5050943;28;20171;-66
2022/01/08 10:19:25;;;;;;;25.60;16.07;;;4.60;99.90;;;;;;5050915;28;20608;-68
2022/01/08 10:21:53;;;;;;;24.73;14.43;;;4.60;99.90;;;;;;5050297;28;20182;-66
2022/01/08 10:24:26;;;;;;;20.67;14.30;;;4.70;99.90;;;;;;5050639;28;20260;-67
2022/01/08 10:26:59;;;;;;;12.30;11.10;;;4.80;99.90;;;;;;5050632;28;20224;-67
2022/01/08 10:29:25;;;;;;;11.67;10.40;;;4.80;99.90;;;;;;5049406;28;20183;-66
2022/01/08 10:31:53;;;;;;;11.87;10.60;;;4.70;99.90;;;;;;5050055;28;20265;-66
2022/01/08 10:34:24;;;;;;;12.53;10.10;;;4.70;99.90;;;;;;5050582;28;20232;-65
2022/01/08 10:36:56;;;;;;;11.83;10.53;;;4.60;99.90;;;;;;5050626;28;20179;-67
2022/01/08 10:39:32;;;;;;;10.20;9.30;;;4.60;99.90;;;;;;5050472;28;20307;-66
2022/01/08 10:42:02;;;;;;;11.00;9.83;;;4.60;99.90;;;;;;5049079;28;20202;-67
2022/01/08 10:44:30;;;;;;;10.57;9.60;;;4.60;99.90;;;;;;5054331;28;20541;-66
2022/01/08 10:46:57;;;;;;;10.67;9.67;;;4.70;99.90;;;;;;5053005;28;20185;-66
2022/01/08 10:49:31;;;;;;;10.97;10.10;;;4.70;99.90;;;;;;5054468;28;20344;-66
2022/01/08 10:52:05;;;;;;;10.67;9.67;;;4.90;99.90;;;;;;5054139;28;20186;-66
2022/01/08 10:54:36;;;;;;;10.20;9.33;;;5.10;99.90;;;;;;5054258;28;20170;-66
2022/01/08 10:57:06;;;;;;;12.93;8.90;;;5.40;99.90;;;;;;5054264;28;20193;-66
2022/01/08 10:59:32;;;;;;;11.77;10.77;;;5.60;99.90;;;;;;5054555;28;20203;-66
2022/01/08 11:02:04;;;;;;;8.23;7.63;;;5.90;99.90;;;;;;5053677;28;20193;-65
2022/01/08 11:04:38;;;;;;;8.83;8.07;;;6.30;99.90;;;;;;5054147;28;20179;-65
2022/01/08 11:07:09;;;;;;;8.90;8.10;;;6.30;99.90;;;;;;5053968;28;20233;-65
2022/01/08 11:09:37;;;;;;;9.90;9.10;;;6.10;99.90;;;;;;5054277;28;20181;-66
2022/01/08 11:12:05;;;;;;;9.23;8.37;;;5.90;99.90;;;;;;5052983;28;20189;-66
2022/01/08 11:17:25;;;;;;;9.17;8.50;;;5.60;99.90;;;;;;5053545;28;20206;-66
2022/01/08 11:19:53;;;;;;;11.17;10.17;;;5.50;99.90;;;;;;5051818;28;20340;-65
2022/01/08 11:22:22;;;;;;;9.90;9.13;;;5.50;99.90;;;;;;5053215;28;20182;-65
2022/01/08 11:25:00;;;;;;;9.87;9.07;;;5.50;99.90;;;;;;5054057;28;20688;-67
2022/01/08 11:27:35;;;;;;;9.83;9.10;;;5.40;99.90;;;;;;5053360;28;20651;-66
2022/01/08 11:30:14;;;;;;;9.27;8.60;;;5.40;99.90;;;;;;5054040;28;20174;-65
2022/01/08 11:32:40;;;;;;;9.80;9.03;;;5.40;99.90;;;;;;5053636;28;20611;-67
2022/01/08 11:35:08;;;;;;;8.47;7.67;;;5.40;99.90;;;;;;5052143;28;20175;-68
2022/01/08 11:37:34;;;;;;;8.27;7.67;;;5.50;99.90;;;;;;5053301;28;20198;-66
2022/01/08 11:40:05;;;;;;;8.80;8.20;;;5.50;99.90;;;;;;5053378;28;20202;-67
2022/01/08 11:42:34;;;;;;;8.40;7.80;;;5.40;99.90;;;;;;5051681;28;20186;-66
2022/01/08 11:45:02;;;;;;;8.03;7.50;;;5.50;99.90;;;;;;5053528;28;20254;-66
2022/01/08 11:47:30;;;;;;;8.60;8.10;;;5.40;99.90;;;;;;5053024;28;20202;-66
2022/01/08 11:49:58;;;;;;;8.27;7.77;;;5.40;99.90;;;;;;5053144;28;20210;-66
2022/01/08 11:52:25;;;;;;;8.93;8.30;;;5.40;99.90;;;;;;5051623;28;20640;-65
2022/01/08 11:54:54;;;;;;;8.50;7.93;;;5.40;99.90;;;;;;5051441;28;20175;-67
2022/01/08 11:57:26;;;;;;;8.10;7.40;;;5.40;99.90;;;;;;5053074;28;20195;-65
2022/01/08 11:59:57;;;;;;;7.97;7.43;;;5.40;99.90;;;;;;5052928;28;20194;-65
2022/01/08 12:02:39;;;;;;;8.10;7.60;;;5.40;99.90;;;;;;5032796;28;20180;-65
2022/01/08 12:05:05;;;;;;;8.70;7.93;;;5.40;99.90;;;;;;5034675;28;20163;-66
2022/01/08 12:07:35;;;;;;;8.13;7.40;;;5.40;99.90;;;;;;5052112;28;20194;-65
2022/01/08 12:10:29;;;;;;;8.30;7.80;;;5.50;99.90;;;;;;5052748;28;20174;-65
2022/01/08 12:12:57;;;;;;;8.40;7.73;;;5.50;99.90;;;;;;5052719;28;20171;-66
2022/01/08 12:15:41;;;;;;;8.23;7.67;;;5.50;99.90;;;;;;5052269;28;20191;-66
2022/01/08 12:18:17;;;;;;;8.63;7.83;;;5.50;99.90;;;;;;5052711;28;20205;-66
2022/01/08 12:20:49;;;;;;;7.90;7.37;;;5.50;99.90;;;;;;5051294;28;20220;-68
2022/01/08 12:23:26;;;;;;;8.80;8.10;;;5.40;99.90;;;;;;5052818;28;20178;-66
2022/01/08 12:25:52;;;;;;;8.00;7.50;;;5.40;99.90;;;;;;5053082;28;20175;-65
2022/01/08 12:28:46;;;;;;;8.80;7.13;;;5.40;99.90;;;;;;5085251;28;20271;-66
2022/01/08 12:31:50;;;;;;;8.33;7.67;;;5.40;99.90;;;;;;5050422;28;20270;-66
2022/01/08 12:34:44;;;;;;;9.00;8.10;;;5.40;99.90;;;;;;5052213;28;20189;-67
2022/01/08 12:37:11;;;;;;;8.50;7.90;;;5.20;99.90;;;;;;5052824;28;20274;-67
2022/01/08 12:39:43;;;;;;;8.10;7.50;;;5.10;99.90;;;;;;5052173;28;20305;-67
2022/01/08 12:42:20;;;;;;;8.87;8.17;;;5.00;99.90;;;;;;5051891;28;20186;-66
2022/01/08 12:45:07;;;;;;;8.10;7.43;;;5.10;99.90;;;;;;5052756;28;20709;-66
2022/01/08 12:47:43;;;;;;;8.57;7.83;;;5.00;99.90;;;;;;5052098;28;20195;-66
2022/01/08 12:50:32;;;;;;;8.07;7.57;;;4.90;99.90;;;;;;5051369;28;20253;-66
2022/01/08 12:53:07;;;;;;;8.97;8.13;;;4.80;99.90;;;;;;5051593;28;20182;-69
2022/01/08 12:55:42;;;;;;;9.33;8.67;;;4.90;99.90;;;;;;5051522;28;20186;-68
2022/01/08 12:58:25;;;;;;;9.43;8.73;;;4.80;99.90;;;;;;5052139;28;20198;-67
2022/01/08 13:00:55;;;;;;;7.70;7.20;;;4.80;99.90;;;;;;5051635;28;20245;-68
2022/01/08 13:03:25;;;;;;;8.37;7.87;;;4.80;99.90;;;;;;5051782;28;20590;-67
2022/01/08 13:05:52;;;;;;;8.57;8.00;;;4.80;99.90;;;;;;5049850;28;20270;-68
2022/01/08 13:08:32;;;;;;;7.67;7.10;;;4.80;99.90;;;;;;5051714;28;20193;-67
2022/01/08 13:11:02;;;;;;;8.93;8.13;;;4.80;99.90;;;;;;5051821;28;20246;-68